sensor_id;sensor_type;location;lat;lon;timestamp;P1;durP1;ratioP1;P2;durP2;ratioP2
3949;SDS011;53057;50.988;6.314;2022-08-21T00:00:17;29.73;;;20.27;;
3949;SDS011;53057;50.988;6.314;2022-08-21T00:02:49;28.10;;;20.97;;
3949;SDS011;53057;50.988;6.314;2022-08-21T00:05:16;24.00;;;21.40;;
3949;SDS011;53057;50.988;6.314;2022-08-21T00:07:43;29.07;;;22.40;;
3949;SDS011;53057;50.988;6.314;2022-08-21T00:10:11;29.33;;;24.20;;
3949;SDS011;53057;50.988;6.314;2022-08-21T00:12:38;30.17;;;21.00;;
3949;SDS011;53057;50.988;6.314;2022-08-21T00:15:05;36.10;;;20.63;;
3949;SDS011;53057;50.988;6.314;2022-08-21T00:17:34;27.23;;;22.63;;
3949;SDS011;53057;50.988;6.314;2022-08-21T00:20:01;33.37;;;23.63;;
3949;SDS011;53057;50.988;6.314;2022-08-21T00:22:27;33.30;;;22.87;;
3949;SDS011;53057;50.988;6.314;2022-08-21T00:24:54;42.87;;;24.07;;
3949;SDS011;53057;50.988;6.314;2022-08-21T00:27:21;36.47;;;23.73;;
3949;SDS011;53057;50.988;6.314;2022-08-21T00:29:48;40.40;;;24.60;;
3949;SDS011;53057;50.988;6.314;2022-08-21T00:32:25;35.90;;;24.47;;
3949;SDS011;53057;50.988;6.314;2022-08-21T00:34:52;36.27;;;22.97;;
3949;SDS011;53057;50.988;6.314;2022-08-21T00:37:19;35.00;;;22.50;;
3949;SDS011;53057;50.988;6.314;2022-08-21T00:39:46;28.50;;;20.83;;
3949;SDS011;53057;50.988;6.314;2022-08-21T00:42:13;33.90;;;18.70;;
3949;SDS011;53057;50.988;6.314;2022-08-21T00:44:45;27.20;;;17.97;;
3949;SDS011;53057;50.988;6.314;2022-08-21T00:47:12;31.57;;;19.20;;
3949;SDS011;53057;50.988;6.314;2022-08-21T00:49:39;46.30;;;18.30;;
3949;SDS011;53057;50.988;6.314;2022-08-21T00:52:08;26.10;;;17.97;;
3949;SDS011;53057;50.988;6.314;2022-08-21T00:54:35;23.53;;;15.20;;
3949;SDS011;53057;50.988;6.314;2022-08-21T00:57:10;30.93;;;15.80;;
3949;SDS011;53057;50.988;6.314;2022-08-21T00:59:40;22.43;;;12.07;;
3949;SDS011;53057;50.988;6.314;2022-08-21T01:02:08;24.20;;;11.07;;
3949;SDS011;53057;50.988;6.314;2022-08-21T01:04:36;23.77;;;12.10;;
3949;SDS011;53057;50.988;6.314;2022-08-21T01:07:03;28.63;;;13.27;;
3949;SDS011;53057;50.988;6.314;2022-08-21T01:09:30;25.93;;;11.57;;
3949;SDS011;53057;50.988;6.314;2022-08-21T01:11:56;26.90;;;12.87;;
3949;SDS011;53057;50.988;6.314;2022-08-21T01:14:24;23.87;;;13.20;;
3949;SDS011;53057;50.988;6.314;2022-08-21T01:16:52;18.80;;;12.13;;
3949;SDS011;53057;50.988;6.314;2022-08-21T01:19:19;32.00;;;12.50;;
3949;SDS011;53057;50.988;6.314;2022-08-21T01:21:47;16.13;;;11.50;;
3949;SDS011;53057;50.988;6.314;2022-08-21T01:24:13;29.10;;;13.67;;
3949;SDS011;53057;50.988;6.314;2022-08-21T01:26:41;36.60;;;14.33;;
3949;SDS011;53057;50.988;6.314;2022-08-21T01:29:13;20.07;;;13.40;;
3949;SDS011;53057;50.988;6.314;2022-08-21T01:31:41;30.53;;;13.70;;
3949;SDS011;53057;50.988;6.314;2022-08-21T01:34:08;37.53;;;13.07;;
3949;SDS011;53057;50.988;6.314;2022-08-21T01:36:35;27.33;;;13.40;;
3949;SDS011;53057;50.988;6.314;2022-08-21T01:39:03;32.63;;;13.63;;
3949;SDS011;53057;50.988;6.314;2022-08-21T01:41:30;26.23;;;13.90;;
3949;SDS011;53057;50.988;6.314;2022-08-21T01:43:57;21.10;;;12.00;;
3949;SDS011;53057;50.988;6.314;2022-08-21T01:46:23;23.83;;;10.70;;
3949;SDS011;53057;50.988;6.314;2022-08-21T01:48:50;28.37;;;12.50;;
3949;SDS011;53057;50.988;6.314;2022-08-21T01:51:17;36.23;;;12.60;;
3949;SDS011;53057;50.988;6.314;2022-08-21T01:53:44;18.73;;;10.60;;
3949;SDS011;53057;50.988;6.314;2022-08-21T01:56:12;20.40;;;10.17;;
3949;SDS011;53057;50.988;6.314;2022-08-21T01:58:40;24.23;;;10.53;;
3949;SDS011;53057;50.988;6.314;2022-08-21T02:01:08;15.10;;;9.73;;
3949;SDS011;53057;50.988;6.314;2022-08-21T02:03:36;20.17;;;10.73;;
3949;SDS011;53057;50.988;6.314;2022-08-21T02:06:03;24.30;;;9.60;;
3949;SDS011;53057;50.988;6.314;2022-08-21T02:08:30;20.40;;;10.47;;
3949;SDS011;53057;50.988;6.314;2022-08-21T02:10:57;15.80;;;9.70;;
3949;SDS011;53057;50.988;6.314;2022-08-21T02:13:24;21.90;;;10.17;;
3949;SDS011;53057;50.988;6.314;2022-08-21T02:15:50;15.70;;;10.40;;
3949;SDS011;53057;50.988;6.314;2022-08-21T02:18:17;12.07;;;9.70;;
3949;SDS011;53057;50.988;6.314;2022-08-21T02:20:46;20.60;;;10.73;;
3949;SDS011;53057;50.988;6.314;2022-08-21T02:23:13;26.17;;;10.67;;
3949;SDS011;53057;50.988;6.314;2022-08-21T02:25:40;23.97;;;12.17;;
3949;SDS011;53057;50.988;6.314;2022-08-21T02:28:12;24.43;;;10.83;;
3949;SDS011;53057;50.988;6.314;2022-08-21T02:30:40;20.70;;;11.77;;
3949;SDS011;53057;50.988;6.314;2022-08-21T02:33:07;18.70;;;11.97;;
3949;SDS011;53057;50.988;6.314;2022-08-21T02:35:36;26.00;;;12.90;;
3949;SDS011;53057;50.988;6.314;2022-08-21T02:38:05;22.50;;;12.43;;
3949;SDS011;53057;50.988;6.314;2022-08-21T02:40:39;23.40;;;10.93;;
3949;SDS011;53057;50.988;6.314;2022-08-21T02:43:13;21.87;;;12.00;;
3949;SDS011;53057;50.988;6.314;2022-08-21T02:45:42;26.33;;;13.10;;
3949;SDS011;53057;50.988;6.314;2022-08-21T02:48:10;23.70;;;14.00;;
3949;SDS011;53057;50.988;6.314;2022-08-21T02:50:39;18.33;;;11.73;;
3949;SDS011;53057;50.988;6.314;2022-08-21T02:53:07;21.70;;;12.70;;
3949;SDS011;53057;50.988;6.314;2022-08-21T02:55:34;19.67;;;12.93;;
3949;SDS011;53057;50.988;6.314;2022-08-21T02:58:02;24.27;;;12.47;;
3949;SDS011;53057;50.988;6.314;2022-08-21T03:00:30;19.73;;;12.57;;
3949;SDS011;53057;50.988;6.314;2022-08-21T03:02:57;21.83;;;11.20;;
3949;SDS011;53057;50.988;6.314;2022-08-21T03:05:25;15.33;;;11.63;;
3949;SDS011;53057;50.988;6.314;2022-08-21T03:07:52;13.50;;;11.07;;
3949;SDS011;53057;50.988;6.314;2022-08-21T03:10:19;20.53;;;10.87;;
3949;SDS011;53057;50.988;6.314;2022-08-21T03:12:46;15.17;;;10.83;;
3949;SDS011;53057;50.988;6.314;2022-08-21T03:15:14;16.30;;;9.83;;
3949;SDS011;53057;50.988;6.314;2022-08-21T03:17:41;14.00;;;10.13;;
3949;SDS011;53057;50.988;6.314;2022-08-21T03:20:08;23.53;;;9.73;;
3949;SDS011;53057;50.988;6.314;2022-08-21T03:22:34;19.10;;;10.53;;
3949;SDS011;53057;50.988;6.314;2022-08-21T03:25:02;24.60;;;10.60;;
3949;SDS011;53057;50.988;6.314;2022-08-21T03:27:32;15.77;;;10.33;;
3949;SDS011;53057;50.988;6.314;2022-08-21T03:30:00;17.27;;;11.40;;
3949;SDS011;53057;50.988;6.314;2022-08-21T03:32:27;14.07;;;11.13;;
3949;SDS011;53057;50.988;6.314;2022-08-21T03:34:54;18.33;;;10.03;;
3949;SDS011;53057;50.988;6.314;2022-08-21T03:37:21;13.80;;;9.87;;
3949;SDS011;53057;50.988;6.314;2022-08-21T03:39:48;18.90;;;10.60;;
3949;SDS011;53057;50.988;6.314;2022-08-21T03:42:14;13.70;;;10.80;;
3949;SDS011;53057;50.988;6.314;2022-08-21T03:44:41;17.67;;;12.20;;
3949;SDS011;53057;50.988;6.314;2022-08-21T03:47:08;22.13;;;11.83;;
3949;SDS011;53057;50.988;6.314;2022-08-21T03:49:36;19.87;;;11.97;;
3949;SDS011;53057;50.988;6.314;2022-08-21T03:52:02;30.43;;;11.57;;
3949;SDS011;53057;50.988;6.314;2022-08-21T03:54:30;18.67;;;12.23;;
3949;SDS011;53057;50.988;6.314;2022-08-21T03:56:56;17.43;;;12.33;;
3949;SDS011;53057;50.988;6.314;2022-08-21T03:59:23;19.70;;;10.97;;
3949;SDS011;53057;50.988;6.314;2022-08-21T04:01:51;23.43;;;12.33;;
3949;SDS011;53057;50.988;6.314;2022-08-21T04:04:18;18.90;;;12.17;;
3949;SDS011;53057;50.988;6.314;2022-08-21T04:06:44;17.87;;;11.73;;
3949;SDS011;53057;50.988;6.314;2022-08-21T04:09:11;14.17;;;11.10;;
3949;SDS011;53057;50.988;6.314;2022-08-21T04:11:38;15.23;;;10.37;;
3949;SDS011;53057;50.988;6.314;2022-08-21T04:14:05;24.03;;;10.77;;
3949;SDS011;53057;50.988;6.314;2022-08-21T04:16:32;16.53;;;10.00;;
3949;SDS011;53057;50.988;6.314;2022-08-21T04:18:58;20.87;;;11.10;;
3949;SDS011;53057;50.988;6.314;2022-08-21T04:21:25;22.47;;;10.47;;
3949;SDS011;53057;50.988;6.314;2022-08-21T04:23:53;16.07;;;11.47;;
3949;SDS011;53057;50.988;6.314;2022-08-21T04:26:20;12.70;;;10.13;;
3949;SDS011;53057;50.988;6.314;2022-08-21T04:28:47;21.40;;;12.40;;
3949;SDS011;53057;50.988;6.314;2022-08-21T04:31:13;17.10;;;11.37;;
3949;SDS011;53057;50.988;6.314;2022-08-21T04:33:40;16.63;;;10.20;;
3949;SDS011;53057;50.988;6.314;2022-08-21T04:36:07;13.63;;;10.87;;
3949;SDS011;53057;50.988;6.314;2022-08-21T04:38:34;19.67;;;10.57;;
3949;SDS011;53057;50.988;6.314;2022-08-21T04:41:03;14.67;;;9.90;;
3949;SDS011;53057;50.988;6.314;2022-08-21T04:43:30;19.70;;;9.93;;
3949;SDS011;53057;50.988;6.314;2022-08-21T04:45:57;21.50;;;11.10;;
3949;SDS011;53057;50.988;6.314;2022-08-21T04:48:24;16.90;;;11.00;;
3949;SDS011;53057;50.988;6.314;2022-08-21T04:53:30;18.70;;;11.30;;
3949;SDS011;53057;50.988;6.314;2022-08-21T04:56:02;14.97;;;10.47;;
3949;SDS011;53057;50.988;6.314;2022-08-21T04:58:31;16.53;;;10.03;;
3949;SDS011;53057;50.988;6.314;2022-08-21T05:01:00;15.90;;;9.90;;
3949;SDS011;53057;50.988;6.314;2022-08-21T05:03:27;19.27;;;10.30;;
3949;SDS011;53057;50.988;6.314;2022-08-21T05:05:55;15.50;;;9.53;;
3949;SDS011;53057;50.988;6.314;2022-08-21T05:08:21;14.00;;;10.50;;
3949;SDS011;53057;50.988;6.314;2022-08-21T05:10:49;14.90;;;9.97;;
3949;SDS011;53057;50.988;6.314;2022-08-21T05:13:16;16.73;;;10.80;;
3949;SDS011;53057;50.988;6.314;2022-08-21T05:15:43;17.13;;;9.57;;
3949;SDS011;53057;50.988;6.314;2022-08-21T05:18:10;11.93;;;9.07;;
3949;SDS011;53057;50.988;6.314;2022-08-21T05:20:37;18.37;;;9.00;;
3949;SDS011;53057;50.988;6.314;2022-08-21T05:23:11;15.50;;;9.30;;
3949;SDS011;53057;50.988;6.314;2022-08-21T05:25:39;15.33;;;10.63;;
3949;SDS011;53057;50.988;6.314;2022-08-21T05:28:07;17.10;;;10.90;;
3949;SDS011;53057;50.988;6.314;2022-08-21T05:30:34;20.57;;;10.00;;
3949;SDS011;53057;50.988;6.314;2022-08-21T05:33:01;14.63;;;10.47;;
3949;SDS011;53057;50.988;6.314;2022-08-21T05:35:29;15.23;;;11.43;;
3949;SDS011;53057;50.988;6.314;2022-08-21T05:37:56;16.20;;;10.33;;
3949;SDS011;53057;50.988;6.314;2022-08-21T05:40:23;18.13;;;9.00;;
3949;SDS011;53057;50.988;6.314;2022-08-21T05:42:50;13.20;;;9.17;;
3949;SDS011;53057;50.988;6.314;2022-08-21T05:45:21;11.53;;;9.17;;
3949;SDS011;53057;50.988;6.314;2022-08-21T05:48:08;28.50;;;8.17;;
3949;SDS011;53057;50.988;6.314;2022-08-21T05:50:35;13.37;;;8.70;;
3949;SDS011;53057;50.988;6.314;2022-08-21T05:53:04;11.57;;;8.40;;
3949;SDS011;53057;50.988;6.314;2022-08-21T05:55:32;13.43;;;9.17;;
3949;SDS011;53057;50.988;6.314;2022-08-21T05:57:59;23.50;;;8.13;;
3949;SDS011;53057;50.988;6.314;2022-08-21T06:00:26;14.73;;;6.90;;
3949;SDS011;53057;50.988;6.314;2022-08-21T06:02:53;15.50;;;8.03;;
3949;SDS011;53057;50.988;6.314;2022-08-21T06:05:20;8.53;;;6.50;;
3949;SDS011;53057;50.988;6.314;2022-08-21T06:08:03;17.60;;;7.23;;
3949;SDS011;53057;50.988;6.314;2022-08-21T06:10:30;12.40;;;6.00;;
3949;SDS011;53057;50.988;6.314;2022-08-21T06:12:56;13.30;;;6.10;;
3949;SDS011;53057;50.988;6.314;2022-08-21T06:15:23;8.13;;;5.47;;
3949;SDS011;53057;50.988;6.314;2022-08-21T06:17:52;13.80;;;5.67;;
3949;SDS011;53057;50.988;6.314;2022-08-21T06:20:19;9.53;;;5.60;;
3949;SDS011;53057;50.988;6.314;2022-08-21T06:22:46;13.90;;;4.73;;
3949;SDS011;53057;50.988;6.314;2022-08-21T06:25:13;13.27;;;5.37;;
3949;SDS011;53057;50.988;6.314;2022-08-21T06:27:40;10.57;;;5.33;;
3949;SDS011;53057;50.988;6.314;2022-08-21T06:30:07;15.80;;;4.97;;
3949;SDS011;53057;50.988;6.314;2022-08-21T06:32:34;12.23;;;6.03;;
3949;SDS011;53057;50.988;6.314;2022-08-21T06:35:00;10.80;;;5.17;;
3949;SDS011;53057;50.988;6.314;2022-08-21T06:37:29;11.83;;;4.67;;
3949;SDS011;53057;50.988;6.314;2022-08-21T06:39:55;10.60;;;5.27;;
3949;SDS011;53057;50.988;6.314;2022-08-21T06:42:24;9.80;;;5.47;;
3949;SDS011;53057;50.988;6.314;2022-08-21T06:44:54;10.93;;;4.30;;
3949;SDS011;53057;50.988;6.314;2022-08-21T06:47:21;7.13;;;4.97;;
3949;SDS011;53057;50.988;6.314;2022-08-21T06:49:47;8.17;;;4.37;;
3949;SDS011;53057;50.988;6.314;2022-08-21T06:52:15;7.50;;;4.70;;
3949;SDS011;53057;50.988;6.314;2022-08-21T06:54:42;6.20;;;3.80;;
3949;SDS011;53057;50.988;6.314;2022-08-21T06:57:09;6.67;;;3.63;;
3949;SDS011;53057;50.988;6.314;2022-08-21T06:59:36;10.80;;;3.97;;
3949;SDS011;53057;50.988;6.314;2022-08-21T07:02:03;12.77;;;3.90;;
3949;SDS011;53057;50.988;6.314;2022-08-21T07:04:30;7.40;;;4.07;;
3949;SDS011;53057;50.988;6.314;2022-08-21T07:06:56;7.93;;;3.13;;
3949;SDS011;53057;50.988;6.314;2022-08-21T07:09:24;6.53;;;3.37;;
3949;SDS011;53057;50.988;6.314;2022-08-21T07:11:51;4.70;;;2.77;;
3949;SDS011;53057;50.988;6.314;2022-08-21T07:14:18;10.17;;;2.73;;
3949;SDS011;53057;50.988;6.314;2022-08-21T07:16:47;11.23;;;3.43;;
3949;SDS011;53057;50.988;6.314;2022-08-21T07:19:20;5.20;;;2.70;;
3949;SDS011;53057;50.988;6.314;2022-08-21T07:21:47;5.67;;;2.10;;
3949;SDS011;53057;50.988;6.314;2022-08-21T07:24:16;2.40;;;1.70;;
3949;SDS011;53057;50.988;6.314;2022-08-21T07:26:47;3.93;;;2.33;;
3949;SDS011;53057;50.988;6.314;2022-08-21T07:29:16;8.30;;;2.63;;
3949;SDS011;53057;50.988;6.314;2022-08-21T07:31:48;11.93;;;2.00;;
3949;SDS011;53057;50.988;6.314;2022-08-21T07:34:17;4.73;;;2.23;;
3949;SDS011;53057;50.988;6.314;2022-08-21T07:36:45;6.23;;;1.60;;
3949;SDS011;53057;50.988;6.314;2022-08-21T07:39:15;4.50;;;1.60;;
3949;SDS011;53057;50.988;6.314;2022-08-21T07:41:41;4.60;;;1.60;;
3949;SDS011;53057;50.988;6.314;2022-08-21T07:44:12;3.70;;;2.33;;
3949;SDS011;53057;50.988;6.314;2022-08-21T07:46:39;4.80;;;1.57;;
3949;SDS011;53057;50.988;6.314;2022-08-21T07:49:06;5.33;;;2.57;;
3949;SDS011;53057;50.988;6.314;2022-08-21T07:51:33;10.20;;;1.83;;
3949;SDS011;53057;50.988;6.314;2022-08-21T07:54:01;3.43;;;1.73;;
3949;SDS011;53057;50.988;6.314;2022-08-21T07:56:29;6.97;;;1.30;;
3949;SDS011;53057;50.988;6.314;2022-08-21T07:58:57;3.50;;;1.40;;
3949;SDS011;53057;50.988;6.314;2022-08-21T08:01:27;4.73;;;1.67;;
3949;SDS011;53057;50.988;6.314;2022-08-21T08:03:58;5.90;;;1.37;;
3949;SDS011;53057;50.988;6.314;2022-08-21T08:06:25;5.80;;;1.20;;
3949;SDS011;53057;50.988;6.314;2022-08-21T08:08:54;4.80;;;1.23;;
3949;SDS011;53057;50.988;6.314;2022-08-21T08:11:27;2.47;;;1.30;;
3949;SDS011;53057;50.988;6.314;2022-08-21T08:13:54;4.00;;;1.20;;
3949;SDS011;53057;50.988;6.314;2022-08-21T08:16:23;1.73;;;1.10;;
3949;SDS011;53057;50.988;6.314;2022-08-21T08:18:51;4.23;;;1.60;;
3949;SDS011;53057;50.988;6.314;2022-08-21T08:21:18;5.40;;;1.43;;
3949;SDS011;53057;50.988;6.314;2022-08-21T08:23:47;7.87;;;1.17;;
3949;SDS011;53057;50.988;6.314;2022-08-21T08:26:14;7.60;;;1.53;;
3949;SDS011;53057;50.988;6.314;2022-08-21T08:28:42;6.40;;;1.47;;
3949;SDS011;53057;50.988;6.314;2022-08-21T08:31:09;2.63;;;0.80;;
3949;SDS011;53057;50.988;6.314;2022-08-21T08:33:37;5.57;;;1.30;;
3949;SDS011;53057;50.988;6.314;2022-08-21T08:36:05;2.23;;;1.27;;
3949;SDS011;53057;50.988;6.314;2022-08-21T08:38:41;2.70;;;2.00;;
3949;SDS011;53057;50.988;6.314;2022-08-21T08:41:21;2.67;;;1.00;;
3949;SDS011;53057;50.988;6.314;2022-08-21T08:44:00;5.93;;;1.57;;
3949;SDS011;53057;50.988;6.314;2022-08-21T08:46:33;5.50;;;1.77;;
3949;SDS011;53057;50.988;6.314;2022-08-21T08:49:26;4.80;;;1.10;;
3949;SDS011;53057;50.988;6.314;2022-08-21T08:54:37;2.23;;;1.10;;
3949;SDS011;53057;50.988;6.314;2022-08-21T08:57:07;5.20;;;1.70;;
3949;SDS011;53057;50.988;6.314;2022-08-21T08:59:40;3.13;;;1.50;;
3949;SDS011;53057;50.988;6.314;2022-08-21T09:02:12;3.37;;;1.13;;
3949;SDS011;53057;50.988;6.314;2022-08-21T09:04:40;2.37;;;1.30;;
3949;SDS011;53057;50.988;6.314;2022-08-21T09:12:39;5.03;;;1.80;;
3949;SDS011;53057;50.988;6.314;2022-08-21T09:15:11;5.17;;;1.17;;
3949;SDS011;53057;50.988;6.314;2022-08-21T09:20:09;3.27;;;1.43;;
3949;SDS011;53057;50.988;6.314;2022-08-21T09:25:32;5.47;;;1.80;;
3949;SDS011;53057;50.988;6.314;2022-08-21T09:28:07;11.37;;;2.07;;
3949;SDS011;53057;50.988;6.314;2022-08-21T09:30:34;10.20;;;1.90;;
3949;SDS011;53057;50.988;6.314;2022-08-21T09:33:01;4.67;;;2.27;;
3949;SDS011;53057;50.988;6.314;2022-08-21T09:35:28;4.00;;;1.60;;
3949;SDS011;53057;50.988;6.314;2022-08-21T09:37:59;5.80;;;1.70;;
3949;SDS011;53057;50.988;6.314;2022-08-21T09:40:36;5.33;;;1.70;;
3949;SDS011;53057;50.988;6.314;2022-08-21T09:43:16;6.03;;;1.70;;
3949;SDS011;53057;50.988;6.314;2022-08-21T09:45:44;4.90;;;2.03;;
3949;SDS011;53057;50.988;6.314;2022-08-21T09:48:13;3.90;;;1.70;;
3949;SDS011;53057;50.988;6.314;2022-08-21T09:50:41;3.30;;;1.77;;
3949;SDS011;53057;50.988;6.314;2022-08-21T09:53:17;6.93;;;2.03;;
3949;SDS011;53057;50.988;6.314;2022-08-21T09:55:54;11.30;;;1.63;;
3949;SDS011;53057;50.988;6.314;2022-08-21T09:58:40;4.57;;;1.80;;
3949;SDS011;53057;50.988;6.314;2022-08-21T10:01:12;4.73;;;1.73;;
3949;SDS011;53057;50.988;6.314;2022-08-21T10:03:40;4.97;;;1.73;;
3949;SDS011;53057;50.988;6.314;2022-08-21T10:06:08;7.20;;;1.80;;
3949;SDS011;53057;50.988;6.314;2022-08-21T10:08:40;7.97;;;2.30;;
3949;SDS011;53057;50.988;6.314;2022-08-21T10:11:14;5.37;;;1.70;;
3949;SDS011;53057;50.988;6.314;2022-08-21T10:21:23;5.57;;;2.40;;
3949;SDS011;53057;50.988;6.314;2022-08-21T10:23:56;8.73;;;2.73;;
3949;SDS011;53057;50.988;6.314;2022-08-21T10:26:30;11.47;;;2.10;;
3949;SDS011;53057;50.988;6.314;2022-08-21T10:39:29;9.30;;;2.43;;
3949;SDS011;53057;50.988;6.314;2022-08-21T10:47:07;6.73;;;1.73;;
3949;SDS011;53057;50.988;6.314;2022-08-21T10:55:16;6.97;;;2.10;;
3949;SDS011;53057;50.988;6.314;2022-08-21T11:00:41;9.03;;;1.93;;
3949;SDS011;53057;50.988;6.314;2022-08-21T11:03:27;6.23;;;2.40;;
3949;SDS011;53057;50.988;6.314;2022-08-21T11:06:18;6.37;;;1.90;;
3949;SDS011;53057;50.988;6.314;2022-08-21T11:09:04;7.30;;;2.20;;
3949;SDS011;53057;50.988;6.314;2022-08-21T11:11:40;6.10;;;1.90;;
3949;SDS011;53057;50.988;6.314;2022-08-21T11:17:29;3.83;;;1.80;;
3949;SDS011;53057;50.988;6.314;2022-08-21T11:20:08;8.23;;;2.23;;
3949;SDS011;53057;50.988;6.314;2022-08-21T11:22:38;5.03;;;1.20;;
3949;SDS011;53057;50.988;6.314;2022-08-21T11:25:10;4.13;;;2.00;;
3949;SDS011;53057;50.988;6.314;2022-08-21T11:27:41;7.50;;;2.00;;
3949;SDS011;53057;50.988;6.314;2022-08-21T11:30:37;3.97;;;1.30;;
3949;SDS011;53057;50.988;6.314;2022-08-21T11:36:27;5.27;;;1.57;;
3949;SDS011;53057;50.988;6.314;2022-08-21T11:39:00;6.53;;;2.13;;
3949;SDS011;53057;50.988;6.314;2022-08-21T11:41:34;3.23;;;1.40;;
3949;SDS011;53057;50.988;6.314;2022-08-21T11:44:23;4.27;;;1.50;;
3949;SDS011;53057;50.988;6.314;2022-08-21T11:46:59;2.97;;;1.50;;
3949;SDS011;53057;50.988;6.314;2022-08-21T11:52:16;5.77;;;1.53;;
3949;SDS011;53057;50.988;6.314;2022-08-21T11:55:28;7.93;;;2.10;;
3949;SDS011;53057;50.988;6.314;2022-08-21T12:00:48;5.50;;;1.80;;
3949;SDS011;53057;50.988;6.314;2022-08-21T12:05:57;16.53;;;1.87;;
3949;SDS011;53057;50.988;6.314;2022-08-21T12:08:38;3.70;;;1.20;;
3949;SDS011;53057;50.988;6.314;2022-08-21T12:13:59;2.20;;;1.13;;
3949;SDS011;53057;50.988;6.314;2022-08-21T12:20:26;3.03;;;1.37;;
3949;SDS011;53057;50.988;6.314;2022-08-21T12:23:17;1.77;;;1.10;;
3949;SDS011;53057;50.988;6.314;2022-08-21T12:25:59;3.37;;;1.07;;
3949;SDS011;53057;50.988;6.314;2022-08-21T12:29:50;2.73;;;1.33;;
3949;SDS011;53057;50.988;6.314;2022-08-21T12:35:05;3.03;;;1.20;;
3949;SDS011;53057;50.988;6.314;2022-08-21T12:41:34;2.60;;;1.10;;
3949;SDS011;53057;50.988;6.314;2022-08-21T12:47:33;6.67;;;1.37;;
3949;SDS011;53057;50.988;6.314;2022-08-21T12:55:30;3.37;;;1.43;;
3949;SDS011;53057;50.988;6.314;2022-08-21T12:58:16;3.03;;;1.10;;
3949;SDS011;53057;50.988;6.314;2022-08-21T13:00:52;2.80;;;1.20;;
3949;SDS011;53057;50.988;6.314;2022-08-21T13:03:19;2.43;;;1.07;;
3949;SDS011;53057;50.988;6.314;2022-08-21T13:05:48;6.73;;;1.73;;
3949;SDS011;53057;50.988;6.314;2022-08-21T13:08:26;2.73;;;1.40;;
3949;SDS011;53057;50.988;6.314;2022-08-21T13:11:00;6.23;;;2.17;;
3949;SDS011;53057;50.988;6.314;2022-08-21T13:13:41;8.00;;;2.10;;
3949;SDS011;53057;50.988;6.314;2022-08-21T13:16:18;6.20;;;2.07;;
3949;SDS011;53057;50.988;6.314;2022-08-21T13:18:55;1.50;;;1.40;;
3949;SDS011;53057;50.988;6.314;2022-08-21T13:21:26;7.00;;;1.10;;
3949;SDS011;53057;50.988;6.314;2022-08-21T13:23:54;4.53;;;1.10;;
3949;SDS011;53057;50.988;6.314;2022-08-21T13:26:21;3.23;;;1.43;;
3949;SDS011;53057;50.988;6.314;2022-08-21T13:28:52;2.67;;;1.17;;
3949;SDS011;53057;50.988;6.314;2022-08-21T13:31:24;3.27;;;1.57;;
3949;SDS011;53057;50.988;6.314;2022-08-21T13:33:53;2.33;;;1.30;;
3949;SDS011;53057;50.988;6.314;2022-08-21T13:36:24;2.43;;;1.20;;
3949;SDS011;53057;50.988;6.314;2022-08-21T13:38:52;2.70;;;1.47;;
3949;SDS011;53057;50.988;6.314;2022-08-21T13:41:21;3.23;;;1.60;;
3949;SDS011;53057;50.988;6.314;2022-08-21T13:43:55;8.40;;;1.40;;
3949;SDS011;53057;50.988;6.314;2022-08-21T13:46:22;2.73;;;1.10;;
3949;SDS011;53057;50.988;6.314;2022-08-21T13:48:58;2.40;;;1.23;;
3949;SDS011;53057;50.988;6.314;2022-08-21T13:51:36;1.87;;;1.37;;
3949;SDS011;53057;50.988;6.314;2022-08-21T13:54:26;4.77;;;1.10;;
3949;SDS011;53057;50.988;6.314;2022-08-21T13:56:51;2.57;;;1.47;;
3949;SDS011;53057;50.988;6.314;2022-08-21T13:59:40;1.77;;;1.17;;
3949;SDS011;53057;50.988;6.314;2022-08-21T14:04:38;1.93;;;1.00;;
3949;SDS011;53057;50.988;6.314;2022-08-21T14:09:54;2.40;;;1.10;;
3949;SDS011;53057;50.988;6.314;2022-08-21T14:12:29;2.93;;;1.30;;
3949;SDS011;53057;50.988;6.314;2022-08-21T14:15:05;2.60;;;1.40;;
3949;SDS011;53057;50.988;6.314;2022-08-21T14:17:36;3.53;;;1.73;;
3949;SDS011;53057;50.988;6.314;2022-08-21T14:22:58;2.57;;;1.67;;
3949;SDS011;53057;50.988;6.314;2022-08-21T14:27:57;1.97;;;1.23;;
3949;SDS011;53057;50.988;6.314;2022-08-21T14:33:45;2.13;;;1.23;;
3949;SDS011;53057;50.988;6.314;2022-08-21T14:36:12;2.90;;;1.50;;
3949;SDS011;53057;50.988;6.314;2022-08-21T14:38:44;3.73;;;2.00;;
3949;SDS011;53057;50.988;6.314;2022-08-21T14:41:15;2.00;;;1.20;;
3949;SDS011;53057;50.988;6.314;2022-08-21T14:43:43;2.60;;;1.40;;
3949;SDS011;53057;50.988;6.314;2022-08-21T14:46:10;3.30;;;1.83;;
3949;SDS011;53057;50.988;6.314;2022-08-21T14:48:37;3.53;;;1.30;;
3949;SDS011;53057;50.988;6.314;2022-08-21T14:51:04;4.23;;;1.30;;
3949;SDS011;53057;50.988;6.314;2022-08-21T14:53:31;6.37;;;1.60;;
3949;SDS011;53057;50.988;6.314;2022-08-21T14:56:01;3.17;;;1.50;;
3949;SDS011;53057;50.988;6.314;2022-08-21T14:58:31;7.83;;;1.53;;
3949;SDS011;53057;50.988;6.314;2022-08-21T15:00:59;3.50;;;1.10;;
3949;SDS011;53057;50.988;6.314;2022-08-21T15:03:30;2.87;;;0.90;;
3949;SDS011;53057;50.988;6.314;2022-08-21T15:05:57;6.43;;;1.80;;
3949;SDS011;53057;50.988;6.314;2022-08-21T15:08:24;4.70;;;1.97;;
3949;SDS011;53057;50.988;6.314;2022-08-21T15:10:52;5.80;;;1.30;;
3949;SDS011;53057;50.988;6.314;2022-08-21T15:13:39;4.87;;;1.60;;
3949;SDS011;53057;50.988;6.314;2022-08-21T15:16:07;5.80;;;1.37;;
3949;SDS011;53057;50.988;6.314;2022-08-21T15:18:42;3.63;;;1.20;;
3949;SDS011;53057;50.988;6.314;2022-08-21T15:21:09;3.13;;;1.77;;
3949;SDS011;53057;50.988;6.314;2022-08-21T15:23:36;3.17;;;1.00;;
3949;SDS011;53057;50.988;6.314;2022-08-21T15:26:09;6.77;;;1.40;;
3949;SDS011;53057;50.988;6.314;2022-08-21T15:28:36;3.90;;;1.30;;
3949;SDS011;53057;50.988;6.314;2022-08-21T15:31:10;4.07;;;1.80;;
3949;SDS011;53057;50.988;6.314;2022-08-21T15:33:39;4.10;;;2.00;;
3949;SDS011;53057;50.988;6.314;2022-08-21T15:36:06;4.07;;;1.77;;
3949;SDS011;53057;50.988;6.314;2022-08-21T15:38:33;3.00;;;1.20;;
3949;SDS011;53057;50.988;6.314;2022-08-21T15:41:01;4.33;;;1.70;;
3949;SDS011;53057;50.988;6.314;2022-08-21T15:43:37;4.50;;;1.83;;
3949;SDS011;53057;50.988;6.314;2022-08-21T15:46:05;4.73;;;2.20;;
3949;SDS011;53057;50.988;6.314;2022-08-21T15:48:32;4.00;;;1.57;;
3949;SDS011;53057;50.988;6.314;2022-08-21T15:50:59;3.77;;;2.10;;
3949;SDS011;53057;50.988;6.314;2022-08-21T15:53:26;6.97;;;2.60;;
3949;SDS011;53057;50.988;6.314;2022-08-21T15:55:53;5.40;;;1.80;;
3949;SDS011;53057;50.988;6.314;2022-08-21T15:58:20;4.10;;;1.43;;
3949;SDS011;53057;50.988;6.314;2022-08-21T16:00:48;3.97;;;1.20;;
3949;SDS011;53057;50.988;6.314;2022-08-21T16:03:16;3.70;;;1.40;;
3949;SDS011;53057;50.988;6.314;2022-08-21T16:05:49;7.00;;;2.17;;
3949;SDS011;53057;50.988;6.314;2022-08-21T16:08:27;4.90;;;1.80;;
3949;SDS011;53057;50.988;6.314;2022-08-21T16:10:54;10.33;;;1.50;;
3949;SDS011;53057;50.988;6.314;2022-08-21T16:13:25;7.00;;;1.60;;
3949;SDS011;53057;50.988;6.314;2022-08-21T16:15:53;11.30;;;1.40;;
3949;SDS011;53057;50.988;6.314;2022-08-21T16:18:21;10.40;;;3.77;;
3949;SDS011;53057;50.988;6.314;2022-08-21T16:20:48;8.70;;;1.53;;
3949;SDS011;53057;50.988;6.314;2022-08-21T16:23:15;3.97;;;1.17;;
3949;SDS011;53057;50.988;6.314;2022-08-21T16:25:42;3.67;;;1.27;;
3949;SDS011;53057;50.988;6.314;2022-08-21T16:28:10;4.50;;;1.57;;
3949;SDS011;53057;50.988;6.314;2022-08-21T16:30:39;5.67;;;2.00;;
3949;SDS011;53057;50.988;6.314;2022-08-21T16:33:06;5.70;;;2.13;;
3949;SDS011;53057;50.988;6.314;2022-08-21T16:35:33;7.03;;;1.20;;
3949;SDS011;53057;50.988;6.314;2022-08-21T16:38:00;5.80;;;2.53;;
3949;SDS011;53057;50.988;6.314;2022-08-21T16:40:27;4.87;;;1.47;;
3949;SDS011;53057;50.988;6.314;2022-08-21T16:42:55;5.83;;;1.27;;
3949;SDS011;53057;50.988;6.314;2022-08-21T16:45:21;4.23;;;2.10;;